sensor_id;sensor_type;location;lat;lon;timestamp;temperature;humidity
48589;DHT22;34369;51.174;6.738;2023-04-24T00:01:11;10.80;59.00
48589;DHT22;34369;51.174;6.738;2023-04-24T00:03:43;10.80;59.10
48589;DHT22;34369;51.174;6.738;2023-04-24T00:06:15;10.70;59.10
48589;DHT22;34369;51.174;6.738;2023-04-24T00:08:48;10.60;59.10
48589;DHT22;34369;51.174;6.738;2023-04-24T00:11:21;10.60;59.20
48589;DHT22;34369;51.174;6.738;2023-04-24T00:13:53;10.60;59.20
48589;DHT22;34369;51.174;6.738;2023-04-24T00:16:25;10.60;59.20
48589;DHT22;34369;51.174;6.738;2023-04-24T00:18:58;10.50;59.30
48589;DHT22;34369;51.174;6.738;2023-04-24T00:21:31;10.50;59.20
48589;DHT22;34369;51.174;6.738;2023-04-24T00:24:03;10.40;59.20
48589;DHT22;34369;51.174;6.738;2023-04-24T00:26:36;10.40;59.30
48589;DHT22;34369;51.174;6.738;2023-04-24T00:29:08;10.40;59.40
48589;DHT22;34369;51.174;6.738;2023-04-24T00:31:40;10.30;59.40
48589;DHT22;34369;51.174;6.738;2023-04-24T00:34:12;10.30;59.30
48589;DHT22;34369;51.174;6.738;2023-04-24T00:36:44;10.30;59.50
48589;DHT22;34369;51.174;6.738;2023-04-24T00:39:16;10.20;59.50
48589;DHT22;34369;51.174;6.738;2023-04-24T00:41:50;10.20;59.40
48589;DHT22;34369;51.174;6.738;2023-04-24T00:44:23;10.20;59.40
48589;DHT22;34369;51.174;6.738;2023-04-24T00:46:55;10.20;59.60
48589;DHT22;34369;51.174;6.738;2023-04-24T00:49:27;10.20;59.70
48589;DHT22;34369;51.174;6.738;2023-04-24T00:51:59;10.20;59.50
48589;DHT22;34369;51.174;6.738;2023-04-24T00:54:31;10.20;59.20
48589;DHT22;34369;51.174;6.738;2023-04-24T00:57:07;10.20;59.30
48589;DHT22;34369;51.174;6.738;2023-04-24T00:59:39;10.20;59.30
48589;DHT22;34369;51.174;6.738;2023-04-24T01:02:13;10.20;59.00
48589;DHT22;34369;51.174;6.738;2023-04-24T01:04:46;10.10;58.90
48589;DHT22;34369;51.174;6.738;2023-04-24T01:07:19;10.10;58.70
48589;DHT22;34369;51.174;6.738;2023-04-24T01:09:52;10.10;58.90
48589;DHT22;34369;51.174;6.738;2023-04-24T01:12:25;10.00;58.80
48589;DHT22;34369;51.174;6.738;2023-04-24T01:14:59;10.00;58.80
48589;DHT22;34369;51.174;6.738;2023-04-24T01:17:33;10.00;58.90
48589;DHT22;34369;51.174;6.738;2023-04-24T01:20:07;10.00;58.90
48589;DHT22;34369;51.174;6.738;2023-04-24T01:22:42;10.00;58.70
48589;DHT22;34369;51.174;6.738;2023-04-24T01:25:15;10.00;58.70
48589;DHT22;34369;51.174;6.738;2023-04-24T01:27:47;9.90;58.70
48589;DHT22;34369;51.174;6.738;2023-04-24T01:30:19;9.80;58.90
48589;DHT22;34369;51.174;6.738;2023-04-24T01:32:52;9.80;59.00
48589;DHT22;34369;51.174;6.738;2023-04-24T01:35:26;9.70;59.00
48589;DHT22;34369;51.174;6.738;2023-04-24T01:38:00;9.60;59.20
48589;DHT22;34369;51.174;6.738;2023-04-24T01:40:33;9.50;59.30
48589;DHT22;34369;51.174;6.738;2023-04-24T01:43:05;9.50;59.40
48589;DHT22;34369;51.174;6.738;2023-04-24T01:45:37;9.40;59.50
48589;DHT22;34369;51.174;6.738;2023-04-24T01:48:11;9.40;59.70
48589;DHT22;34369;51.174;6.738;2023-04-24T01:50:43;9.40;59.80
48589;DHT22;34369;51.174;6.738;2023-04-24T01:53:17;9.40;60.00
48589;DHT22;34369;51.174;6.738;2023-04-24T01:55:50;9.30;60.20
48589;DHT22;34369;51.174;6.738;2023-04-24T01:58:22;9.30;60.30
48589;DHT22;34369;51.174;6.738;2023-04-24T02:00:56;9.20;60.50
48589;DHT22;34369;51.174;6.738;2023-04-24T02:03:29;9.20;60.60
48589;DHT22;34369;51.174;6.738;2023-04-24T02:06:02;9.20;60.60
48589;DHT22;34369;51.174;6.738;2023-04-24T02:08:36;9.20;60.70
48589;DHT22;34369;51.174;6.738;2023-04-24T02:11:09;9.20;60.90
48589;DHT22;34369;51.174;6.738;2023-04-24T02:13:41;9.20;60.90
48589;DHT22;34369;51.174;6.738;2023-04-24T02:16:16;9.20;60.90
48589;DHT22;34369;51.174;6.738;2023-04-24T02:18:49;9.20;60.90
48589;DHT22;34369;51.174;6.738;2023-04-24T02:21:21;9.20;61.00
48589;DHT22;34369;51.174;6.738;2023-04-24T02:23:55;9.20;61.10
48589;DHT22;34369;51.174;6.738;2023-04-24T02:26:27;9.20;61.10
48589;DHT22;34369;51.174;6.738;2023-04-24T02:29:01;9.20;61.20
48589;DHT22;34369;51.174;6.738;2023-04-24T02:31:33;9.20;61.30
48589;DHT22;34369;51.174;6.738;2023-04-24T02:34:06;9.20;61.30
48589;DHT22;34369;51.174;6.738;2023-04-24T02:36:38;9.20;61.40
48589;DHT22;34369;51.174;6.738;2023-04-24T02:39:13;9.30;61.30
48589;DHT22;34369;51.174;6.738;2023-04-24T02:41:47;9.30;61.40
48589;DHT22;34369;51.174;6.738;2023-04-24T02:44:19;9.30;61.40
48589;DHT22;34369;51.174;6.738;2023-04-24T02:46:52;9.40;61.30
48589;DHT22;34369;51.174;6.738;2023-04-24T02:49:24;9.40;61.40
48589;DHT22;34369;51.174;6.738;2023-04-24T02:51:57;9.40;61.40
48589;DHT22;34369;51.174;6.738;2023-04-24T02:54:34;9.40;61.50
48589;DHT22;34369;51.174;6.738;2023-04-24T02:57:06;9.40;61.50
48589;DHT22;34369;51.174;6.738;2023-04-24T02:59:38;9.40;61.40
48589;DHT22;34369;51.174;6.738;2023-04-24T03:02:11;9.40;61.40
48589;DHT22;34369;51.174;6.738;2023-04-24T03:04:45;9.40;61.50
48589;DHT22;34369;51.174;6.738;2023-04-24T03:07:18;9.40;61.40
48589;DHT22;34369;51.174;6.738;2023-04-24T03:09:52;9.40;61.50
48589;DHT22;34369;51.174;6.738;2023-04-24T03:12:25;9.40;61.60
48589;DHT22;34369;51.174;6.738;2023-04-24T03:14:58;9.40;61.50
48589;DHT22;34369;51.174;6.738;2023-04-24T03:17:30;9.40;61.60
48589;DHT22;34369;51.174;6.738;2023-04-24T03:20:04;9.50;61.60
48589;DHT22;34369;51.174;6.738;2023-04-24T03:22:38;9.50;61.50
48589;DHT22;34369;51.174;6.738;2023-04-24T03:25:12;9.50;61.50
48589;DHT22;34369;51.174;6.738;2023-04-24T03:27:44;9.50;61.60
48589;DHT22;34369;51.174;6.738;2023-04-24T03:30:16;9.50;61.50
48589;DHT22;34369;51.174;6.738;2023-04-24T03:32:48;9.50;61.50
48589;DHT22;34369;51.174;6.738;2023-04-24T03:35:20;9.50;61.50
48589;DHT22;34369;51.174;6.738;2023-04-24T03:37:52;9.50;61.40
48589;DHT22;34369;51.174;6.738;2023-04-24T03:40:26;9.50;61.30
48589;DHT22;34369;51.174;6.738;2023-04-24T03:43:00;9.50;61.40
48589;DHT22;34369;51.174;6.738;2023-04-24T03:45:31;9.50;61.30
48589;DHT22;34369;51.174;6.738;2023-04-24T03:48:04;9.50;61.10
48589;DHT22;34369;51.174;6.738;2023-04-24T03:50:35;9.50;61.00
48589;DHT22;34369;51.174;6.738;2023-04-24T03:53:07;9.50;61.00
48589;DHT22;34369;51.174;6.738;2023-04-24T03:55:41;9.50;60.90
48589;DHT22;34369;51.174;6.738;2023-04-24T03:58:13;9.50;61.00
48589;DHT22;34369;51.174;6.738;2023-04-24T04:00:45;9.50;60.90
48589;DHT22;34369;51.174;6.738;2023-04-24T04:03:18;9.50;61.00
48589;DHT22;34369;51.174;6.738;2023-04-24T04:05:50;9.50;61.10
48589;DHT22;34369;51.174;6.738;2023-04-24T04:08:22;9.50;61.10
48589;DHT22;34369;51.174;6.738;2023-04-24T04:10:55;9.50;60.90
48589;DHT22;34369;51.174;6.738;2023-04-24T04:13:27;9.50;61.00
48589;DHT22;34369;51.174;6.738;2023-04-24T04:15:59;9.50;61.00
48589;DHT22;34369;51.174;6.738;2023-04-24T04:18:31;9.50;61.00
48589;DHT22;34369;51.174;6.738;2023-04-24T04:21:03;9.50;61.00
48589;DHT22;34369;51.174;6.738;2023-04-24T04:23:35;9.50;61.00
48589;DHT22;34369;51.174;6.738;2023-04-24T04:26:09;9.50;61.10
48589;DHT22;34369;51.174;6.738;2023-04-24T04:28:41;9.50;61.10
48589;DHT22;34369;51.174;6.738;2023-04-24T04:31:14;9.50;61.10
48589;DHT22;34369;51.174;6.738;2023-04-24T04:33:49;9.40;61.10
48589;DHT22;34369;51.174;6.738;2023-04-24T04:36:22;9.40;61.30
48589;DHT22;34369;51.174;6.738;2023-04-24T04:38:54;9.40;61.30
48589;DHT22;34369;51.174;6.738;2023-04-24T04:41:28;9.40;61.30
48589;DHT22;34369;51.174;6.738;2023-04-24T04:44:00;9.40;61.20
48589;DHT22;34369;51.174;6.738;2023-04-24T04:46:34;9.40;61.30
48589;DHT22;34369;51.174;6.738;2023-04-24T04:49:07;9.40;61.40
48589;DHT22;34369;51.174;6.738;2023-04-24T04:51:41;9.40;61.50
48589;DHT22;34369;51.174;6.738;2023-04-24T04:54:13;9.40;61.40
48589;DHT22;34369;51.174;6.738;2023-04-24T04:56:46;9.40;61.70
48589;DHT22;34369;51.174;6.738;2023-04-24T04:59:18;9.40;61.70
48589;DHT22;34369;51.174;6.738;2023-04-24T05:01:50;9.40;61.40
48589;DHT22;34369;51.174;6.738;2023-04-24T05:04:22;9.40;61.50
48589;DHT22;34369;51.174;6.738;2023-04-24T05:06:54;9.40;61.40
48589;DHT22;34369;51.174;6.738;2023-04-24T05:09:26;9.40;61.40
48589;DHT22;34369;51.174;6.738;2023-04-24T05:12:01;9.40;61.20
48589;DHT22;34369;51.174;6.738;2023-04-24T05:14:33;9.30;61.30
48589;DHT22;34369;51.174;6.738;2023-04-24T05:17:09;9.30;61.30
48589;DHT22;34369;51.174;6.738;2023-04-24T05:19:45;9.40;61.50
48589;DHT22;34369;51.174;6.738;2023-04-24T05:22:23;9.40;61.60
48589;DHT22;34369;51.174;6.738;2023-04-24T05:24:56;9.30;61.70
48589;DHT22;34369;51.174;6.738;2023-04-24T05:27:32;9.30;61.90
48589;DHT22;34369;51.174;6.738;2023-04-24T05:30:07;9.30;62.30
48589;DHT22;34369;51.174;6.738;2023-04-24T05:32:43;9.20;62.30
48589;DHT22;34369;51.174;6.738;2023-04-24T05:35:16;9.20;62.50
48589;DHT22;34369;51.174;6.738;2023-04-24T05:37:52;9.20;62.60
48589;DHT22;34369;51.174;6.738;2023-04-24T05:40:26;9.20;62.60
48589;DHT22;34369;51.174;6.738;2023-04-24T05:43:01;9.20;62.70
48589;DHT22;34369;51.174;6.738;2023-04-24T05:45:38;9.20;62.90
48589;DHT22;34369;51.174;6.738;2023-04-24T05:48:11;9.20;62.90
48589;DHT22;34369;51.174;6.738;2023-04-24T05:50:49;9.10;63.00
48589;DHT22;34369;51.174;6.738;2023-04-24T05:53:23;9.10;63.10
48589;DHT22;34369;51.174;6.738;2023-04-24T05:55:59;9.00;63.20
48589;DHT22;34369;51.174;6.738;2023-04-24T05:58:34;9.00;63.40
48589;DHT22;34369;51.174;6.738;2023-04-24T06:01:17;9.00;63.50
48589;DHT22;34369;51.174;6.738;2023-04-24T06:03:50;9.00;63.70
48589;DHT22;34369;51.174;6.738;2023-04-24T06:06:28;9.00;63.60
48589;DHT22;34369;51.174;6.738;2023-04-24T06:09:03;9.00;63.60
48589;DHT22;34369;51.174;6.738;2023-04-24T06:11:37;9.00;63.50
48589;DHT22;34369;51.174;6.738;2023-04-24T06:14:10;9.00;63.70
48589;DHT22;34369;51.174;6.738;2023-04-24T06:16:42;8.90;63.90
48589;DHT22;34369;51.174;6.738;2023-04-24T06:19:14;8.90;63.90
48589;DHT22;34369;51.174;6.738;2023-04-24T06:21:46;9.00;64.10
48589;DHT22;34369;51.174;6.738;2023-04-24T06:24:18;8.90;64.20
48589;DHT22;34369;51.174;6.738;2023-04-24T06:26:50;8.90;64.40
48589;DHT22;34369;51.174;6.738;2023-04-24T06:29:24;8.90;64.50
48589;DHT22;34369;51.174;6.738;2023-04-24T06:31:56;9.00;64.50
48589;DHT22;34369;51.174;6.738;2023-04-24T06:34:28;8.90;64.50
48589;DHT22;34369;51.174;6.738;2023-04-24T06:37:01;9.00;64.70
48589;DHT22;34369;51.174;6.738;2023-04-24T06:39:33;8.90;64.70
48589;DHT22;34369;51.174;6.738;2023-04-24T06:42:05;8.90;64.80
48589;DHT22;34369;51.174;6.738;2023-04-24T06:44:39;8.90;65.10
48589;DHT22;34369;51.174;6.738;2023-04-24T06:47:12;8.90;65.20
48589;DHT22;34369;51.174;6.738;2023-04-24T06:49:44;8.90;65.40
48589;DHT22;34369;51.174;6.738;2023-04-24T06:52:16;8.90;65.60
48589;DHT22;34369;51.174;6.738;2023-04-24T06:54:48;8.90;65.60
48589;DHT22;34369;51.174;6.738;2023-04-24T06:57:23;8.80;65.70
48589;DHT22;34369;51.174;6.738;2023-04-24T06:59:58;8.80;65.90
48589;DHT22;34369;51.174;6.738;2023-04-24T07:02:31;8.80;66.10
48589;DHT22;34369;51.174;6.738;2023-04-24T07:05:06;8.70;66.20
48589;DHT22;34369;51.174;6.738;2023-04-24T07:07:39;8.60;66.40
48589;DHT22;34369;51.174;6.738;2023-04-24T07:10:14;8.60;66.60
48589;DHT22;34369;51.174;6.738;2023-04-24T07:12:47;8.60;66.80
48589;DHT22;34369;51.174;6.738;2023-04-24T07:15:22;8.60;66.80
48589;DHT22;34369;51.174;6.738;2023-04-24T07:17:54;8.60;66.70
48589;DHT22;34369;51.174;6.738;2023-04-24T07:20:26;8.60;66.90
48589;DHT22;34369;51.174;6.738;2023-04-24T07:22:58;8.60;67.00
48589;DHT22;34369;51.174;6.738;2023-04-24T07:25:30;8.60;67.10
48589;DHT22;34369;51.174;6.738;2023-04-24T07:28:03;8.60;67.20
48589;DHT22;34369;51.174;6.738;2023-04-24T07:30:37;8.60;67.10
48589;DHT22;34369;51.174;6.738;2023-04-24T07:33:09;8.60;67.10
48589;DHT22;34369;51.174;6.738;2023-04-24T07:35:43;8.60;66.70
48589;DHT22;34369;51.174;6.738;2023-04-24T07:38:18;8.50;66.40
48589;DHT22;34369;51.174;6.738;2023-04-24T07:40:52;8.50;65.90
48589;DHT22;34369;51.174;6.738;2023-04-24T07:43:24;8.40;65.50
48589;DHT22;34369;51.174;6.738;2023-04-24T07:45:58;8.30;65.10
48589;DHT22;34369;51.174;6.738;2023-04-24T07:48:30;8.20;65.40
48589;DHT22;34369;51.174;6.738;2023-04-24T07:53:52;8.10;65.40
48589;DHT22;34369;51.174;6.738;2023-04-24T07:56:39;7.90;65.70
48589;DHT22;34369;51.174;6.738;2023-04-24T07:59:14;7.80;65.50
48589;DHT22;34369;51.174;6.738;2023-04-24T08:01:47;7.70;65.80
48589;DHT22;34369;51.174;6.738;2023-04-24T08:04:19;7.60;66.00
48589;DHT22;34369;51.174;6.738;2023-04-24T08:06:52;7.60;65.90
48589;DHT22;34369;51.174;6.738;2023-04-24T08:09:25;7.50;66.30
48589;DHT22;34369;51.174;6.738;2023-04-24T08:12:00;7.50;66.50
48589;DHT22;34369;51.174;6.738;2023-04-24T08:14:33;7.40;66.90
48589;DHT22;34369;51.174;6.738;2023-04-24T08:17:06;7.30;67.20
48589;DHT22;34369;51.174;6.738;2023-04-24T08:19:41;7.30;67.60
48589;DHT22;34369;51.174;6.738;2023-04-24T08:22:18;7.30;68.00
48589;DHT22;34369;51.174;6.738;2023-04-24T08:24:52;7.30;68.20
48589;DHT22;34369;51.174;6.738;2023-04-24T08:27:26;7.20;68.70
48589;DHT22;34369;51.174;6.738;2023-04-24T08:29:58;7.30;69.00
48589;DHT22;34369;51.174;6.738;2023-04-24T08:32:36;7.30;69.10
48589;DHT22;34369;51.174;6.738;2023-04-24T08:35:09;7.30;69.30
48589;DHT22;34369;51.174;6.738;2023-04-24T08:37:41;7.30;69.40
48589;DHT22;34369;51.174;6.738;2023-04-24T08:40:16;7.40;69.60
48589;DHT22;34369;51.174;6.738;2023-04-24T08:42:54;7.40;69.80
48589;DHT22;34369;51.174;6.738;2023-04-24T08:45:29;7.50;69.90
48589;DHT22;34369;51.174;6.738;2023-04-24T08:48:04;7.50;69.70
48589;DHT22;34369;51.174;6.738;2023-04-24T08:50:38;7.50;69.80
48589;DHT22;34369;51.174;6.738;2023-04-24T08:53:14;7.50;69.90
48589;DHT22;34369;51.174;6.738;2023-04-24T08:55:51;7.50;69.80
48589;DHT22;34369;51.174;6.738;2023-04-24T08:58:27;7.50;69.80
48589;DHT22;34369;51.174;6.738;2023-04-24T09:01:02;7.50;69.90
48589;DHT22;34369;51.174;6.738;2023-04-24T09:03:39;7.60;70.00
48589;DHT22;34369;51.174;6.738;2023-04-24T09:06:13;7.60;70.00
48589;DHT22;34369;51.174;6.738;2023-04-24T09:08:49;7.60;70.10
48589;DHT22;34369;51.174;6.738;2023-04-24T09:11:51;7.60;70.10
48589;DHT22;34369;51.174;6.738;2023-04-24T09:14:27;7.60;70.70
48589;DHT22;34369;51.174;6.738;2023-04-24T09:17:02;7.70;70.20
48589;DHT22;34369;51.174;6.738;2023-04-24T09:19:35;7.70;70.30
48589;DHT22;34369;51.174;6.738;2023-04-24T09:22:09;7.70;70.30
48589;DHT22;34369;51.174;6.738;2023-04-24T09:24:45;7.80;70.30
48589;DHT22;34369;51.174;6.738;2023-04-24T09:27:24;7.80;70.50
48589;DHT22;34369;51.174;6.738;2023-04-24T09:29:56;7.80;70.50
48589;DHT22;34369;51.174;6.738;2023-04-24T09:32:29;7.80;70.40
48589;DHT22;34369;51.174;6.738;2023-04-24T09:35:07;7.90;70.30
48589;DHT22;34369;51.174;6.738;2023-04-24T09:37:46;7.90;70.50
48589;DHT22;34369;51.174;6.738;2023-04-24T09:40:21;7.90;70.40
48589;DHT22;34369;51.174;6.738;2023-04-24T09:42:58;8.00;70.40
48589;DHT22;34369;51.174;6.738;2023-04-24T09:45:36;8.00;71.00
48589;DHT22;34369;51.174;6.738;2023-04-24T09:48:09;8.10;70.40
48589;DHT22;34369;51.174;6.738;2023-04-24T09:50:45;8.10;70.40
48589;DHT22;34369;51.174;6.738;2023-04-24T09:53:23;8.10;70.60
48589;DHT22;34369;51.174;6.738;2023-04-24T09:56:02;8.20;70.60
48589;DHT22;34369;51.174;6.738;2023-04-24T09:58:36;8.20;70.60
48589;DHT22;34369;51.174;6.738;2023-04-24T10:01:09;8.20;70.50
48589;DHT22;34369;51.174;6.738;2023-04-24T10:03:42;8.30;70.60
48589;DHT22;34369;51.174;6.738;2023-04-24T10:06:15;8.30;70.80
48589;DHT22;34369;51.174;6.738;2023-04-24T10:08:48;8.30;70.80
48589;DHT22;34369;51.174;6.738;2023-04-24T10:11:21;8.40;70.90
48589;DHT22;34369;51.174;6.738;2023-04-24T10:13:55;8.40;70.80
48589;DHT22;34369;51.174;6.738;2023-04-24T10:16:29;8.50;70.80
48589;DHT22;34369;51.174;6.738;2023-04-24T10:19:03;8.50;70.80
48589;DHT22;34369;51.174;6.738;2023-04-24T10:21:35;8.60;70.70
48589;DHT22;34369;51.174;6.738;2023-04-24T10:24:09;8.60;70.70
48589;DHT22;34369;51.174;6.738;2023-04-24T10:26:42;8.60;70.60
48589;DHT22;34369;51.174;6.738;2023-04-24T10:29:18;8.60;70.50
48589;DHT22;34369;51.174;6.738;2023-04-24T10:31:53;8.70;70.50
48589;DHT22;34369;51.174;6.738;2023-04-24T10:34:25;8.80;70.30
48589;DHT22;34369;51.174;6.738;2023-04-24T10:36:58;8.80;70.00
48589;DHT22;34369;51.174;6.738;2023-04-24T10:39:30;8.90;69.90
48589;DHT22;34369;51.174;6.738;2023-04-24T10:42:15;8.90;69.90
48589;DHT22;34369;51.174;6.738;2023-04-24T10:44:49;8.90;69.70
48589;DHT22;34369;51.174;6.738;2023-04-24T10:47:22;8.90;69.70
48589;DHT22;34369;51.174;6.738;2023-04-24T10:49:59;9.00;69.70
48589;DHT22;34369;51.174;6.738;2023-04-24T10:52:44;9.00;70.30
48589;DHT22;34369;51.174;6.738;2023-04-24T10:55:17;9.00;70.60
48589;DHT22;34369;51.174;6.738;2023-04-24T10:58:13;9.10;70.70
48589;DHT22;34369;51.174;6.738;2023-04-24T11:00:58;9.20;70.40
48589;DHT22;34369;51.174;6.738;2023-04-24T11:03:32;9.30;69.60
48589;DHT22;34369;51.174;6.738;2023-04-24T11:06:08;9.40;69.20
48589;DHT22;34369;51.174;6.738;2023-04-24T11:08:43;9.40;68.90
48589;DHT22;34369;51.174;6.738;2023-04-24T11:11:17;9.40;68.60
48589;DHT22;34369;51.174;6.738;2023-04-24T11:14:04;9.50;68.40
48589;DHT22;34369;51.174;6.738;2023-04-24T11:16:50;9.50;68.50
48589;DHT22;34369;51.174;6.738;2023-04-24T11:19:24;9.60;68.70
48589;DHT22;34369;51.174;6.738;2023-04-24T11:21:59;9.60;68.30
48589;DHT22;34369;51.174;6.738;2023-04-24T11:24:38;9.70;67.60
48589;DHT22;34369;51.174;6.738;2023-04-24T11:27:13;9.70;66.50
48589;DHT22;34369;51.174;6.738;2023-04-24T11:29:48;9.70;66.40
48589;DHT22;34369;51.174;6.738;2023-04-24T11:32:35;9.70;66.70
48589;DHT22;34369;51.174;6.738;2023-04-24T11:35:10;9.80;66.70
48589;DHT22;34369;51.174;6.738;2023-04-24T11:37:47;9.80;66.90
48589;DHT22;34369;51.174;6.738;2023-04-24T11:40:22;10.00;66.40
48589;DHT22;34369;51.174;6.738;2023-04-24T11:42:56;10.00;66.30
48589;DHT22;34369;51.174;6.738;2023-04-24T11:45:30;10.00;66.50
48589;DHT22;34369;51.174;6.738;2023-04-24T11:48:05;10.20;66.20
48589;DHT22;34369;51.174;6.738;2023-04-24T11:50:37;10.30;66.10
48589;DHT22;34369;51.174;6.738;2023-04-24T11:53:09;10.40;66.20
48589;DHT22;34369;51.174;6.738;2023-04-24T11:55:41;10.50;65.80
48589;DHT22;34369;51.174;6.738;2023-04-24T11:58:14;10.60;65.10
48589;DHT22;34369;51.174;6.738;2023-04-24T12:00:46;10.60;64.70
48589;DHT22;34369;51.174;6.738;2023-04-24T12:03:29;10.60;64.40
48589;DHT22;34369;51.174;6.738;2023-04-24T12:06:05;10.60;64.60
48589;DHT22;34369;51.174;6.738;2023-04-24T12:08:38;10.60;64.60
48589;DHT22;34369;51.174;6.738;2023-04-24T12:11:10;10.60;64.10
48589;DHT22;34369;51.174;6.738;2023-04-24T12:13:43;10.80;63.00
48589;DHT22;34369;51.174;6.738;2023-04-24T12:16:16;10.80;63.00
48589;DHT22;34369;51.174;6.738;2023-04-24T12:18:51;10.80;62.40
48589;DHT22;34369;51.174;6.738;2023-04-24T12:21:23;10.90;61.00
48589;DHT22;34369;51.174;6.738;2023-04-24T12:23:57;11.00;60.90
48589;DHT22;34369;51.174;6.738;2023-04-24T12:26:30;11.00;60.70
48589;DHT22;34369;51.174;6.738;2023-04-24T12:29:03;11.00;59.80
48589;DHT22;34369;51.174;6.738;2023-04-24T12:31:35;11.00;58.90
48589;DHT22;34369;51.174;6.738;2023-04-24T12:34:18;11.00;59.40
48589;DHT22;34369;51.174;6.738;2023-04-24T12:36:51;11.00;59.10
48589;DHT22;34369;51.174;6.738;2023-04-24T12:39:24;11.00;59.80
48589;DHT22;34369;51.174;6.738;2023-04-24T12:42:00;11.00;59.30
48589;DHT22;34369;51.174;6.738;2023-04-24T12:44:35;11.00;58.90
48589;DHT22;34369;51.174;6.738;2023-04-24T12:47:08;11.00;58.70
48589;DHT22;34369;51.174;6.738;2023-04-24T12:49:42;11.00;58.80
48589;DHT22;34369;51.174;6.738;2023-04-24T12:52:14;11.00;58.60
48589;DHT22;34369;51.174;6.738;2023-04-24T12:54:46;11.10;57.50
48589;DHT22;34369;51.174;6.738;2023-04-24T12:57:19;11.20;56.70
48589;DHT22;34369;51.174;6.738;2023-04-24T12:59:53;11.20;56.60
48589;DHT22;34369;51.174;6.738;2023-04-24T13:02:28;11.30;56.60
48589;DHT22;34369;51.174;6.738;2023-04-24T13:05:03;11.30;56.80
48589;DHT22;34369;51.174;6.738;2023-04-24T13:07:35;11.40;56.50
48589;DHT22;34369;51.174;6.738;2023-04-24T13:10:09;11.40;56.90
48589;DHT22;34369;51.174;6.738;2023-04-24T13:12:41;11.40;56.60
48589;DHT22;34369;51.174;6.738;2023-04-24T13:15:16;11.40;56.60
48589;DHT22;34369;51.174;6.738;2023-04-24T13:17:48;11.40;56.20
48589;DHT22;34369;51.174;6.738;2023-04-24T13:20:23;11.50;56.80
48589;DHT22;34369;51.174;6.738;2023-04-24T13:22:55;11.50;56.60
48589;DHT22;34369;51.174;6.738;2023-04-24T13:25:35;11.60;56.70
48589;DHT22;34369;51.174;6.738;2023-04-24T13:28:09;11.70;57.00
48589;DHT22;34369;51.174;6.738;2023-04-24T13:30:41;11.70;56.50
48589;DHT22;34369;51.174;6.738;2023-04-24T13:33:14;11.80;56.80
48589;DHT22;34369;51.174;6.738;2023-04-24T13:35:48;11.90;56.60
48589;DHT22;34369;51.174;6.738;2023-04-24T13:38:20;12.00;56.30
48589;DHT22;34369;51.174;6.738;2023-04-24T13:40:53;12.10;55.40
48589;DHT22;34369;51.174;6.738;2023-04-24T13:43:26;12.20;54.80
48589;DHT22;34369;51.174;6.738;2023-04-24T13:45:58;12.20;55.20
48589;DHT22;34369;51.174;6.738;2023-04-24T13:48:33;12.30;55.00
48589;DHT22;34369;51.174;6.738;2023-04-24T13:51:07;12.30;55.20
48589;DHT22;34369;51.174;6.738;2023-04-24T13:53:39;12.40;54.30
48589;DHT22;34369;51.174;6.738;2023-04-24T13:58:44;12.40;53.90
48589;DHT22;34369;51.174;6.738;2023-04-24T14:01:16;12.30;52.70
48589;DHT22;34369;51.174;6.738;2023-04-24T14:03:49;12.30;52.30
48589;DHT22;34369;51.174;6.738;2023-04-24T14:06:23;12.20;52.70
48589;DHT22;34369;51.174;6.738;2023-04-24T14:08:55;12.10;53.20
48589;DHT22;34369;51.174;6.738;2023-04-24T14:11:27;12.00;53.60
48589;DHT22;34369;51.174;6.738;2023-04-24T14:14:00;12.00;53.60
48589;DHT22;34369;51.174;6.738;2023-04-24T14:16:33;11.90;53.70
48589;DHT22;34369;51.174;6.738;2023-04-24T14:19:05;11.90;53.50
48589;DHT22;34369;51.174;6.738;2023-04-24T14:21:38;11.90;53.40
48589;DHT22;34369;51.174;6.738;2023-04-24T14:24:11;11.80;53.20
48589;DHT22;34369;51.174;6.738;2023-04-24T14:26:44;11.80;52.40
48589;DHT22;34369;51.174;6.738;2023-04-24T14:29:17;11.80;52.30
48589;DHT22;34369;51.174;6.738;2023-04-24T14:31:50;11.80;52.40
48589;DHT22;34369;51.174;6.738;2023-04-24T14:34:23;11.70;52.70
48589;DHT22;34369;51.174;6.738;2023-04-24T14:37:00;11.70;53.40
48589;DHT22;34369;51.174;6.738;2023-04-24T14:39:33;11.70;53.30
48589;DHT22;34369;51.174;6.738;2023-04-24T14:42:06;11.70;53.20
48589;DHT22;34369;51.174;6.738;2023-04-24T14:44:43;11.70;53.70
48589;DHT22;34369;51.174;6.738;2023-04-24T14:47:17;11.80;53.90
48589;DHT22;34369;51.174;6.738;2023-04-24T14:49:52;11.90;54.50
48589;DHT22;34369;51.174;6.738;2023-04-24T14:52:25;12.00;53.20
48589;DHT22;34369;51.174;6.738;2023-04-24T14:54:58;12.10;53.50
48589;DHT22;34369;51.174;6.738;2023-04-24T14:57:30;12.20;52.70
48589;DHT22;34369;51.174;6.738;2023-04-24T15:00:04;12.30;52.80
48589;DHT22;34369;51.174;6.738;2023-04-24T15:02:39;12.30;52.20
48589;DHT22;34369;51.174;6.738;2023-04-24T15:05:14;12.30;52.60
48589;DHT22;34369;51.174;6.738;2023-04-24T15:07:46;12.40;52.50
48589;DHT22;34369;51.174;6.738;2023-04-24T15:10:19;12.50;51.80
48589;DHT22;34369;51.174;6.738;2023-04-24T15:12:53;12.50;51.00
48589;DHT22;34369;51.174;6.738;2023-04-24T15:15:27;12.60;51.50
48589;DHT22;34369;51.174;6.738;2023-04-24T15:18:00;12.70;51.70
48589;DHT22;34369;51.174;6.738;2023-04-24T15:20:33;12.90;51.80
48589;DHT22;34369;51.174;6.738;2023-04-24T15:23:05;12.90;51.60
48589;DHT22;34369;51.174;6.738;2023-04-24T15:25:38;13.00;50.00
48589;DHT22;34369;51.174;6.738;2023-04-24T15:28:12;13.10;49.70
48589;DHT22;34369;51.174;6.738;2023-04-24T15:30:47;13.00;49.40
48589;DHT22;34369;51.174;6.738;2023-04-24T15:33:20;13.00;49.60
48589;DHT22;34369;51.174;6.738;2023-04-24T15:35:52;12.90;50.00
48589;DHT22;34369;51.174;6.738;2023-04-24T15:38:25;12.90;49.70
48589;DHT22;34369;51.174;6.738;2023-04-24T15:40:57;12.80;50.00
48589;DHT22;34369;51.174;6.738;2023-04-24T15:43:29;12.80;49.60
48589;DHT22;34369;51.174;6.738;2023-04-24T15:46:08;12.80;49.80
48589;DHT22;34369;51.174;6.738;2023-04-24T15:48:42;12.70;50.00
48589;DHT22;34369;51.174;6.738;2023-04-24T15:51:14;12.70;50.20
48589;DHT22;34369;51.174;6.738;2023-04-24T15:53:47;12.70;50.20
48589;DHT22;34369;51.174;6.738;2023-04-24T15:56:19;12.70;50.50
48589;DHT22;34369;51.174;6.738;2023-04-24T15:58:51;12.70;50.70
48589;DHT22;34369;51.174;6.738;2023-04-24T16:01:26;12.70;50.80
48589;DHT22;34369;51.174;6.738;2023-04-24T16:03:58;12.80;50.70
48589;DHT22;34369;51.174;6.738;2023-04-24T16:06:30;12.90;50.50
48589;DHT22;34369;51.174;6.738;2023-04-24T16:09:03;13.00;50.20
48589;DHT22;34369;51.174;6.738;2023-04-24T16:11:35;13.00;50.40
48589;DHT22;34369;51.174;6.738;2023-04-24T16:14:09;13.00;49.80
48589;DHT22;34369;51.174;6.738;2023-04-24T16:16:42;13.10;50.00
48589;DHT22;34369;51.174;6.738;2023-04-24T16:19:14;13.10;49.80
48589;DHT22;34369;51.174;6.738;2023-04-24T16:21:46;13.10;49.50
48589;DHT22;34369;51.174;6.738;2023-04-24T16:24:19;13.10;49.50
48589;DHT22;34369;51.174;6.738;2023-04-24T16:26:55;13.10;48.90